createdAt,value
2022-08-17T00:01:30.135Z,4.25
2022-08-17T00:06:01.472Z,4.23
2022-08-17T00:10:03.714Z,4.32
2022-08-17T00:14:09.876Z,4.55
2022-08-17T00:19:01.551Z,4.18
2022-08-17T00:22:36.663Z,5.13
2022-08-17T00:26:45.124Z,4.93
2022-08-17T00:30:52.850Z,4.55
2022-08-17T00:34:56.680Z,5.10
2022-08-17T00:38:58.994Z,4.97
2022-08-17T00:43:13.169Z,4.72
2022-08-17T00:47:15.205Z,5.35
2022-08-17T00:51:38.531Z,4.80
2022-08-17T00:55:40.687Z,4.82
2022-08-17T01:00:02.354Z,5.28
2022-08-17T01:04:06.369Z,5.13
2022-08-17T01:08:13.190Z,5.47
2022-08-17T01:12:15.371Z,5.07
2022-08-17T01:16:27.739Z,5.10
2022-08-17T01:20:29.852Z,4.95
2022-08-17T01:24:53.539Z,4.93
2022-08-17T01:28:56.378Z,4.53
2022-08-17T01:32:58.489Z,4.65
2022-08-17T01:37:01.072Z,5.57
2022-08-17T01:41:09.530Z,6.15
2022-08-17T01:45:20.388Z,5.80
2022-08-17T01:49:22.613Z,5.10
2022-08-17T01:53:32.595Z,5.35
2022-08-17T01:57:34.903Z,5.47
2022-08-17T02:01:38.014Z,5.20
2022-08-17T02:05:40.949Z,5.95
2022-08-17T02:09:44.066Z,5.97
2022-08-17T02:14:03.195Z,5.78
2022-08-17T02:18:10.344Z,5.87
2022-08-17T02:26:25.799Z,5.82
2022-08-17T02:30:59.370Z,5.38
2022-08-17T02:34:50.801Z,5.95
2022-08-17T02:38:52.866Z,5.65
2022-08-17T02:42:54.944Z,6.43
2022-08-17T02:46:57.116Z,7.05
2022-08-17T02:51:00.876Z,6.38
2022-08-17T02:55:03.093Z,5.72
2022-08-17T02:59:05.269Z,6.22
2022-08-17T03:03:08.925Z,6.32
2022-08-17T03:07:11.912Z,7.22
2022-08-17T03:11:14.482Z,6.43
2022-08-17T03:19:22.146Z,6.00
2022-08-17T03:23:25.601Z,6.10
2022-08-17T03:27:27.759Z,6.55
2022-08-17T03:31:31.517Z,6.30
2022-08-17T03:35:36.498Z,6.17
2022-08-17T03:39:38.922Z,6.72
2022-08-17T03:43:41.033Z,6.60
2022-08-17T03:48:01.609Z,7.22
2022-08-17T03:52:22.578Z,7.20
2022-08-17T03:56:42.797Z,5.65
2022-08-17T04:00:46.064Z,5.90
2022-08-17T04:04:53.925Z,6.50
2022-08-17T04:08:55.854Z,6.00
2022-08-17T04:13:01.357Z,6.88
2022-08-17T04:17:03.645Z,6.28
2022-08-17T04:21:12.810Z,6.72
2022-08-17T04:25:19.852Z,7.70
2022-08-17T04:29:22.758Z,7.32
2022-08-17T04:33:26.907Z,6.85
2022-08-17T04:41:49.293Z,7.05
2022-08-17T04:46:07.182Z,7.35
2022-08-17T04:50:09.666Z,7.45
2022-08-17T04:54:15.670Z,7.18
2022-08-17T04:58:17.784Z,7.47
2022-08-17T05:02:19.782Z,6.85
2022-08-17T05:06:22.156Z,6.68
2022-08-17T05:10:27.126Z,7.05
2022-08-17T05:14:33.767Z,6.85
2022-08-17T05:18:38.802Z,7.60
2022-08-17T05:22:51.458Z,7.57
2022-08-17T05:26:53.559Z,7.20
2022-08-17T05:31:01.344Z,7.57
2022-08-17T05:35:04.442Z,7.53
2022-08-17T05:39:06.715Z,6.57
2022-08-17T05:43:21.114Z,6.57
2022-08-17T05:47:25.227Z,6.30
2022-08-17T05:55:50.726Z,5.60
2022-08-17T06:00:13.632Z,6.18
2022-08-17T06:04:22.302Z,4.75
2022-08-17T06:08:34.149Z,4.93
2022-08-17T06:13:01.132Z,4.70
2022-08-17T06:17:16.376Z,4.40
2022-08-17T06:21:23.747Z,4.55
2022-08-17T06:25:42.562Z,3.72
2022-08-17T06:30:13.789Z,4.07
2022-08-17T06:34:15.901Z,4.28
2022-08-17T06:38:43.844Z,4.00
2022-08-17T06:43:24.514Z,3.97
2022-08-17T06:47:35.071Z,4.45
2022-08-17T06:51:44.367Z,4.03
2022-08-17T06:56:08.932Z,3.65
2022-08-17T07:00:14.366Z,4.15
2022-08-17T07:04:24.417Z,3.85
2022-08-17T07:08:35.069Z,4.10
2022-08-17T07:12:40.442Z,3.70
2022-08-17T07:16:54.994Z,3.67
2022-08-17T07:21:04.727Z,3.58
2022-08-17T07:25:12.881Z,4.05
2022-08-17T07:29:19.962Z,3.30
2022-08-17T07:33:28.890Z,3.13
2022-08-17T07:37:33.408Z,3.85
2022-08-17T07:41:57.863Z,3.30
2022-08-17T07:47:05.677Z,4.43
2022-08-17T07:51:39.730Z,4.13
2022-08-17T07:59:59.993Z,4.47
2022-08-17T08:04:49.877Z,3.95
2022-08-17T08:08:55.762Z,4.25
2022-08-17T08:13:16.691Z,3.83
2022-08-17T08:17:25.575Z,4.53
2022-08-17T08:21:49.274Z,3.83
2022-08-17T08:30:14.509Z,4.45
2022-08-17T08:34:58.652Z,4.22
2022-08-17T08:38:59.327Z,4.40
2022-08-17T08:47:40.336Z,4.38
2022-08-17T08:51:58.130Z,3.90
2022-08-17T08:56:09.923Z,3.92
2022-08-17T09:00:17.511Z,3.58
2022-08-17T09:04:25.405Z,4.18
2022-08-17T09:08:53.443Z,4.05
2022-08-17T09:13:09.877Z,3.80
2022-08-17T09:17:21.385Z,3.83
2022-08-17T09:21:33.817Z,4.18
2022-08-17T09:25:49.902Z,3.33
2022-08-17T09:29:58.471Z,3.50
2022-08-17T09:34:06.181Z,3.72
2022-08-17T09:39:00.315Z,3.42
2022-08-17T09:47:30.652Z,3.90
2022-08-17T09:51:45.745Z,3.45
2022-08-17T09:56:03.151Z,4.82
2022-08-17T10:00:17.337Z,3.47
2022-08-17T10:04:43.733Z,3.65
2022-08-17T10:08:51.913Z,3.50
2022-08-17T10:13:09.730Z,3.55
2022-08-17T10:17:24.748Z,3.72
2022-08-17T10:21:45.331Z,3.70
2022-08-17T10:26:05.069Z,3.28
2022-08-17T10:30:10.298Z,3.97
2022-08-17T10:34:38.819Z,3.20
2022-08-17T10:38:59.137Z,3.97
2022-08-17T10:43:20.549Z,3.85
2022-08-17T10:47:26.994Z,3.40
2022-08-17T10:51:38.295Z,3.47
2022-08-17T10:56:09.080Z,4.13
2022-08-17T11:00:25.554Z,3.65
2022-08-17T11:04:53.788Z,3.75
2022-08-17T11:09:07.893Z,3.85
2022-08-17T11:13:38.756Z,3.63
2022-08-17T11:18:01.579Z,3.90
2022-08-17T11:22:18.988Z,3.03
2022-08-17T11:26:32.472Z,3.50
2022-08-17T11:30:48.789Z,2.80
2022-08-17T11:35:06.978Z,3.58
2022-08-17T11:39:18.074Z,3.63
2022-08-17T11:43:25.443Z,3.30
2022-08-17T11:48:28.699Z,2.97
2022-08-17T11:52:57.556Z,2.83
2022-08-17T11:57:21.812Z,3.22
2022-08-17T12:01:24.303Z,2.97
2022-08-17T12:05:31.659Z,3.92
2022-08-17T12:09:39.291Z,2.97
2022-08-17T12:13:54.264Z,2.90
2022-08-17T12:17:57.294Z,3.22
2022-08-17T12:22:25.454Z,2.67
2022-08-17T12:26:33.472Z,2.40
2022-08-17T12:30:36.403Z,2.72
2022-08-17T12:38:54.223Z,3.30
2022-08-17T12:43:01.213Z,3.10
2022-08-17T12:47:21.014Z,3.40
2022-08-17T12:51:24.245Z,2.63
2022-08-17T12:55:26.643Z,3.08
2022-08-17T12:59:39.703Z,3.10
2022-08-17T13:03:51.053Z,3.08
2022-08-17T13:07:54.840Z,3.38
2022-08-17T13:12:00.294Z,3.13
2022-08-17T13:16:06.658Z,3.25
2022-08-17T13:20:14.860Z,2.72
2022-08-17T13:24:37.937Z,3.40
2022-08-17T13:28:51.767Z,3.45
2022-08-17T13:32:55.901Z,3.30
2022-08-17T13:37:29.929Z,3.80
2022-08-17T13:45:50.765Z,2.95
2022-08-17T13:49:55.318Z,2.50
2022-08-17T13:54:01.057Z,3.08
2022-08-17T13:58:07.429Z,3.70
2022-08-17T14:02:11.312Z,3.17
2022-08-17T14:06:13.347Z,3.33
2022-08-17T14:10:36.731Z,3.38
2022-08-17T14:14:40.818Z,2.85
2022-08-17T14:18:56.310Z,3.50
2022-08-17T14:22:59.626Z,3.28
2022-08-17T14:27:03.634Z,2.97
2022-08-17T14:31:10.624Z,4.20
2022-08-17T14:35:14.658Z,3.08
2022-08-17T14:39:18.166Z,2.88
2022-08-17T14:43:21.039Z,3.33
2022-08-17T14:47:23.078Z,3.55
2022-08-17T14:51:28.881Z,3.10
2022-08-17T14:55:31.202Z,3.60
2022-08-17T14:59:33.818Z,3.08
2022-08-17T15:03:35.975Z,3.13
2022-08-17T15:07:37.957Z,2.83
2022-08-17T15:11:40.431Z,3.22
2022-08-17T15:19:45.126Z,2.97
2022-08-17T15:23:47.880Z,3.25
2022-08-17T15:27:50.173Z,2.83
2022-08-17T15:36:02.083Z,2.88
2022-08-17T15:40:05.591Z,2.80
2022-08-17T15:44:07.843Z,3.10
2022-08-17T15:52:30.368Z,3.47
2022-08-17T15:56:32.836Z,3.78
2022-08-17T16:00:52.956Z,2.85
2022-08-17T16:05:12.056Z,3.40
2022-08-17T16:09:16.342Z,3.00
2022-08-17T16:13:19.327Z,3.53
2022-08-17T16:17:38.824Z,3.17
2022-08-17T16:21:43.220Z,2.95
2022-08-17T16:25:53.157Z,3.50
2022-08-17T16:29:56.111Z,3.15
2022-08-17T16:34:16.837Z,2.70
2022-08-17T16:38:22.487Z,3.03
2022-08-17T16:42:29.232Z,3.78
2022-08-17T16:46:31.608Z,3.20
2022-08-17T16:50:33.881Z,3.40
2022-08-17T16:54:39.530Z,3.45
2022-08-17T16:58:42.222Z,4.22
2022-08-17T17:02:47.518Z,4.07
2022-08-17T17:07:01.250Z,8.32
2022-08-17T17:11:10.371Z,3.55
2022-08-17T17:15:12.785Z,4.88
2022-08-17T17:19:38.506Z,3.95
2022-08-17T17:23:55.309Z,3.97
2022-08-17T17:28:19.203Z,3.67
2022-08-17T17:32:44.676Z,3.75
2022-08-17T17:36:56.519Z,3.28
2022-08-17T17:41:07.540Z,2.93
2022-08-17T17:45:22.257Z,3.60
2022-08-17T17:49:28.514Z,3.15
2022-08-17T17:53:57.491Z,3.28
2022-08-17T17:58:33.649Z,3.40
2022-08-17T18:03:01.642Z,3.28
2022-08-17T18:07:09.087Z,4.47
2022-08-17T18:11:24.951Z,3.50
2022-08-17T18:15:37.064Z,4.13
2022-08-17T18:19:40.190Z,3.58
2022-08-17T18:23:52.566Z,3.88
2022-08-17T18:27:55.033Z,3.23
2022-08-17T18:32:28.795Z,4.75
2022-08-17T18:36:36.299Z,3.95
2022-08-17T18:40:39.272Z,4.35
2022-08-17T18:48:59.041Z,3.63
2022-08-17T18:53:30.332Z,3.75
2022-08-17T18:57:40.668Z,4.03
2022-08-17T19:01:59.873Z,3.65
2022-08-17T19:06:25.668Z,4.00
2022-08-17T19:10:45.837Z,3.78
2022-08-17T19:14:53.588Z,3.88
2022-08-17T19:19:39.762Z,3.03
2022-08-17T19:23:53.841Z,3.50
2022-08-17T19:28:22.982Z,3.97
2022-08-17T19:32:30.580Z,3.60
2022-08-17T19:36:44.510Z,3.60
2022-08-17T19:41:02.706Z,4.43
2022-08-17T19:45:07.702Z,3.42
2022-08-17T19:49:33.770Z,4.72
2022-08-17T19:54:04.945Z,4.30
2022-08-17T19:58:11.051Z,4.18
2022-08-17T20:02:54.446Z,3.88
2022-08-17T20:07:02.099Z,4.50
2022-08-17T20:11:18.338Z,5.03
2022-08-17T20:15:30.090Z,3.55
2022-08-17T20:19:38.676Z,4.88
2022-08-17T20:24:01.861Z,3.92
2022-08-17T20:28:24.364Z,4.30
2022-08-17T20:32:29.808Z,3.72
2022-08-17T20:36:36.882Z,4.78
2022-08-17T20:40:40.633Z,4.32
2022-08-17T20:44:43.351Z,4.03
2022-08-17T20:48:48.490Z,4.17
2022-08-17T20:52:55.193Z,4.20
2022-08-17T20:57:00.441Z,4.70
2022-08-17T21:01:16.263Z,5.47
2022-08-17T21:05:45.438Z,5.10
2022-08-17T21:10:20.319Z,4.15
2022-08-17T21:14:31.459Z,4.18
2022-08-17T21:18:51.510Z,4.00
2022-08-17T21:23:02.464Z,4.57
2022-08-17T21:27:38.451Z,4.97
2022-08-17T21:31:45.436Z,4.07
2022-08-17T21:35:49.596Z,3.75
2022-08-17T21:40:10.009Z,4.30
2022-08-17T21:44:27.813Z,3.33
2022-08-17T21:48:43.103Z,4.35
2022-08-17T21:52:46.392Z,6.07
2022-08-17T21:56:49.077Z,4.13
2022-08-17T22:01:29.669Z,4.28
2022-08-17T22:05:40.164Z,4.30
2022-08-17T22:09:45.414Z,3.95
2022-08-17T22:13:47.422Z,4.38
2022-08-17T22:22:03.628Z,4.40
2022-08-17T22:26:12.513Z,5.32
2022-08-17T22:30:39.662Z,4.00
2022-08-17T22:34:41.598Z,4.80
2022-08-17T22:38:43.921Z,4.60
2022-08-17T22:42:48.092Z,4.93
2022-08-17T22:46:59.138Z,5.03
2022-08-17T22:51:12.829Z,4.88
2022-08-17T22:55:36.775Z,5.28
2022-08-17T22:59:55.628Z,5.15
2022-08-17T23:04:08.835Z,5.15
2022-08-17T23:08:12.800Z,4.93
2022-08-17T23:16:20.468Z,4.82
2022-08-17T23:20:22.813Z,4.88
2022-08-17T23:24:30.066Z,5.37
2022-08-17T23:28:32.123Z,4.65
2022-08-17T23:32:36.756Z,5.47
2022-08-17T23:36:53.343Z,5.60
2022-08-17T23:40:56.092Z,4.90
2022-08-17T23:44:58.211Z,5.38
2022-08-17T23:49:00.850Z,5.60
2022-08-17T23:53:03.248Z,5.05
2022-08-17T23:57:05.972Z,6.07
